sensor_id;sensor_type;location;lat;lon;timestamp;pressure;altitude;pressure_sealevel;temperature;humidity
76434;BME280;65265;53.200;6.080;2023-07-13T00:04:01;101199.25;;;17.08;93.22
76434;BME280;65265;53.200;6.080;2023-07-13T00:08:55;101209.59;;;17.08;92.09
76434;BME280;65265;53.200;6.080;2023-07-13T00:13:46;101208.75;;;17.10;90.97
76434;BME280;65265;53.200;6.080;2023-07-13T00:18:37;101212.13;;;17.06;90.27
76434;BME280;65265;53.200;6.080;2023-07-13T00:23:29;101210.31;;;17.01;90.88
76434;BME280;65265;53.200;6.080;2023-07-13T00:28:22;101215.38;;;16.95;91.34
76434;BME280;65265;53.200;6.080;2023-07-13T00:33:13;101217.88;;;16.92;91.11
76434;BME280;65265;53.200;6.080;2023-07-13T00:38:05;101217.72;;;16.85;90.86
76434;BME280;65265;53.200;6.080;2023-07-13T00:42:58;101218.56;;;16.84;91.97
76434;BME280;65265;53.200;6.080;2023-07-13T00:47:51;101219.44;;;16.84;90.79
76434;BME280;65265;53.200;6.080;2023-07-13T00:52:45;101221.91;;;16.78;91.71
76434;BME280;65265;53.200;6.080;2023-07-13T00:57:37;101215.00;;;16.77;91.27
76434;BME280;65265;53.200;6.080;2023-07-13T01:02:29;101222.75;;;16.77;90.84
76434;BME280;65265;53.200;6.080;2023-07-13T01:07:22;101224.38;;;16.72;91.34
76434;BME280;65265;53.200;6.080;2023-07-13T01:12:14;101222.59;;;16.70;92.09
76434;BME280;65265;53.200;6.080;2023-07-13T01:17:05;101222.59;;;16.70;91.58
76434;BME280;65265;53.200;6.080;2023-07-13T01:21:58;101225.88;;;16.63;93.06
76434;BME280;65265;53.200;6.080;2023-07-13T01:26:49;101224.97;;;16.61;92.26
76434;BME280;65265;53.200;6.080;2023-07-13T01:31:41;101223.91;;;16.53;92.82
76434;BME280;65265;53.200;6.080;2023-07-13T01:36:34;101228.19;;;16.51;92.48
76434;BME280;65265;53.200;6.080;2023-07-13T01:41:27;101220.31;;;16.45;93.19
76434;BME280;65265;53.200;6.080;2023-07-13T01:46:19;101223.69;;;16.42;93.57
76434;BME280;65265;53.200;6.080;2023-07-13T01:51:10;101226.94;;;16.34;94.26
76434;BME280;65265;53.200;6.080;2023-07-13T01:56:02;101226.00;;;16.32;93.42
76434;BME280;65265;53.200;6.080;2023-07-13T02:00:55;101226.72;;;16.26;93.48
76434;BME280;65265;53.200;6.080;2023-07-13T02:05:47;101218.88;;;16.22;95.23
76434;BME280;65265;53.200;6.080;2023-07-13T02:10:38;101220.44;;;16.15;95.37
76434;BME280;65265;53.200;6.080;2023-07-13T02:15:30;101221.31;;;16.16;95.28
76434;BME280;65265;53.200;6.080;2023-07-13T02:20:23;101223.13;;;16.18;96.55
76434;BME280;65265;53.200;6.080;2023-07-13T02:25:14;101217.84;;;16.15;96.60
76434;BME280;65265;53.200;6.080;2023-07-13T02:30:07;101222.22;;;16.16;97.57
76434;BME280;65265;53.200;6.080;2023-07-13T02:34:59;101208.25;;;16.08;97.62
76434;BME280;65265;53.200;6.080;2023-07-13T02:39:51;101216.00;;;16.08;97.03
76434;BME280;65265;53.200;6.080;2023-07-13T02:44:43;101218.28;;;15.96;99.23
76434;BME280;65265;53.200;6.080;2023-07-13T02:49:34;101223.28;;;15.89;98.82
76434;BME280;65265;53.200;6.080;2023-07-13T02:54:26;101229.22;;;15.88;100.00
76434;BME280;65265;53.200;6.080;2023-07-13T02:59:19;101226.53;;;15.82;100.00
76434;BME280;65265;53.200;6.080;2023-07-13T03:04:10;101230.88;;;15.84;100.00
76434;BME280;65265;53.200;6.080;2023-07-13T03:09:02;101229.16;;;15.83;100.00
76434;BME280;65265;53.200;6.080;2023-07-13T03:13:54;101220.63;;;15.87;100.00
76434;BME280;65265;53.200;6.080;2023-07-13T03:18:47;101231.03;;;15.90;100.00
76434;BME280;65265;53.200;6.080;2023-07-13T03:23:39;101229.28;;;15.89;100.00
76434;BME280;65265;53.200;6.080;2023-07-13T03:28:31;101231.78;;;15.86;100.00
76434;BME280;65265;53.200;6.080;2023-07-13T03:33:22;101242.91;;;15.84;100.00
76434;BME280;65265;53.200;6.080;2023-07-13T03:38:15;101235.94;;;15.81;100.00
76434;BME280;65265;53.200;6.080;2023-07-13T03:43:07;101240.13;;;15.76;100.00
76434;BME280;65265;53.200;6.080;2023-07-13T03:47:58;101240.03;;;15.72;100.00
76434;BME280;65265;53.200;6.080;2023-07-13T03:52:50;101248.66;;;15.74;100.00
76434;BME280;65265;53.200;6.080;2023-07-13T03:57:43;101255.44;;;15.70;100.00
76434;BME280;65265;53.200;6.080;2023-07-13T04:02:34;101251.94;;;15.67;100.00
76434;BME280;65265;53.200;6.080;2023-07-13T04:07:27;101254.59;;;15.70;100.00
76434;BME280;65265;53.200;6.080;2023-07-13T04:12:19;101269.16;;;15.68;100.00
76434;BME280;65265;53.200;6.080;2023-07-13T04:17:11;101264.84;;;15.68;100.00
76434;BME280;65265;53.200;6.080;2023-07-13T04:22:03;101264.00;;;15.68;100.00
76434;BME280;65265;53.200;6.080;2023-07-13T04:26:55;101270.88;;;15.69;100.00
76434;BME280;65265;53.200;6.080;2023-07-13T04:31:49;101265.72;;;15.69;100.00
76434;BME280;65265;53.200;6.080;2023-07-13T04:36:42;101280.44;;;15.73;100.00
76434;BME280;65265;53.200;6.080;2023-07-13T04:41:33;101273.66;;;15.76;100.00
76434;BME280;65265;53.200;6.080;2023-07-13T04:46:25;101276.31;;;15.79;100.00
76434;BME280;65265;53.200;6.080;2023-07-13T04:51:16;101284.22;;;15.85;100.00
76434;BME280;65265;53.200;6.080;2023-07-13T04:56:10;101295.75;;;15.99;100.00
76434;BME280;65265;53.200;6.080;2023-07-13T05:01:03;101296.84;;;16.09;100.00
76434;BME280;65265;53.200;6.080;2023-07-13T05:05:55;101303.97;;;16.17;100.00
76434;BME280;65265;53.200;6.080;2023-07-13T05:10:47;101303.19;;;16.21;100.00
76434;BME280;65265;53.200;6.080;2023-07-13T05:15:40;101308.47;;;16.27;100.00
76434;BME280;65265;53.200;6.080;2023-07-13T05:20:31;101312.84;;;16.28;100.00
76434;BME280;65265;53.200;6.080;2023-07-13T05:25:22;101321.63;;;16.36;100.00
76434;BME280;65265;53.200;6.080;2023-07-13T05:30:14;101329.69;;;16.48;100.00
76434;BME280;65265;53.200;6.080;2023-07-13T05:35:08;101342.75;;;16.54;100.00
76434;BME280;65265;53.200;6.080;2023-07-13T05:39:59;101336.13;;;16.65;100.00
76434;BME280;65265;53.200;6.080;2023-07-13T05:44:51;101337.06;;;16.69;100.00
76434;BME280;65265;53.200;6.080;2023-07-13T05:49:42;101345.81;;;16.75;100.00
76434;BME280;65265;53.200;6.080;2023-07-13T05:54:35;101333.03;;;16.81;99.62
76434;BME280;65265;53.200;6.080;2023-07-13T05:59:26;101345.25;;;16.88;98.29
76434;BME280;65265;53.200;6.080;2023-07-13T06:04:18;101348.06;;;16.98;94.92
76434;BME280;65265;53.200;6.080;2023-07-13T06:09:10;101355.06;;;17.04;95.92
76434;BME280;65265;53.200;6.080;2023-07-13T06:14:03;101355.97;;;17.04;93.72
76434;BME280;65265;53.200;6.080;2023-07-13T06:18:54;101353.69;;;17.19;92.61
76434;BME280;65265;53.200;6.080;2023-07-13T06:23:49;101354.59;;;17.20;92.34
76434;BME280;65265;53.200;6.080;2023-07-13T06:28:41;101352.34;;;17.35;89.35
76434;BME280;65265;53.200;6.080;2023-07-13T06:33:34;101361.97;;;17.42;90.94
76434;BME280;65265;53.200;6.080;2023-07-13T06:38:25;101374.16;;;17.47;88.73
76434;BME280;65265;53.200;6.080;2023-07-13T06:43:17;101382.78;;;17.48;87.05
76434;BME280;65265;53.200;6.080;2023-07-13T06:48:09;101379.47;;;17.55;87.95
76434;BME280;65265;53.200;6.080;2023-07-13T06:53:03;101389.50;;;17.81;89.29
76434;BME280;65265;53.200;6.080;2023-07-13T06:57:54;101377.69;;;17.95;87.54
76434;BME280;65265;53.200;6.080;2023-07-13T07:02:46;101392.84;;;18.22;87.04
76434;BME280;65265;53.200;6.080;2023-07-13T07:07:37;101382.16;;;18.51;88.19
76434;BME280;65265;53.200;6.080;2023-07-13T07:12:30;101392.81;;;18.69;88.17
76434;BME280;65265;53.200;6.080;2023-07-13T07:17:21;101403.16;;;18.66;86.06
76434;BME280;65265;53.200;6.080;2023-07-13T07:22:13;101408.13;;;18.56;87.64
76434;BME280;65265;53.200;6.080;2023-07-13T07:27:04;101409.03;;;18.56;88.10
76434;BME280;65265;53.200;6.080;2023-07-13T07:31:58;101403.91;;;18.61;87.63
76434;BME280;65265;53.200;6.080;2023-07-13T07:36:49;101403.22;;;18.72;81.35
76434;BME280;65265;53.200;6.080;2023-07-13T07:41:41;101406.50;;;18.62;79.70
76434;BME280;65265;53.200;6.080;2023-07-13T07:46:32;101409.22;;;18.68;81.29
76434;BME280;65265;53.200;6.080;2023-07-13T07:51:25;101415.06;;;18.55;80.50
76434;BME280;65265;53.200;6.080;2023-07-13T07:56:17;101414.81;;;18.43;80.83
76434;BME280;65265;53.200;6.080;2023-07-13T08:01:08;101409.69;;;18.45;83.01
76434;BME280;65265;53.200;6.080;2023-07-13T08:06:00;101399.44;;;18.52;82.12
76434;BME280;65265;53.200;6.080;2023-07-13T08:10:53;101417.91;;;18.72;84.47
76434;BME280;65265;53.200;6.080;2023-07-13T08:15:45;101410.34;;;18.84;85.00
76434;BME280;65265;53.200;6.080;2023-07-13T08:20:37;101410.44;;;18.93;85.76
76434;BME280;65265;53.200;6.080;2023-07-13T08:25:29;101423.41;;;18.93;83.24
76434;BME280;65265;53.200;6.080;2023-07-13T08:30:22;101424.25;;;18.90;79.49
76434;BME280;65265;53.200;6.080;2023-07-13T08:35:14;101421.00;;;19.03;80.40
76434;BME280;65265;53.200;6.080;2023-07-13T08:40:08;101415.34;;;19.30;76.62
76434;BME280;65265;53.200;6.080;2023-07-13T08:45:08;101415.78;;;19.64;74.97
76434;BME280;65265;53.200;6.080;2023-07-13T08:50:12;101424.59;;;19.76;74.70
76434;BME280;65265;53.200;6.080;2023-07-13T08:55:11;101425.03;;;20.09;74.44
76434;BME280;65265;53.200;6.080;2023-07-13T09:00:04;101420.75;;;20.16;73.17
76434;BME280;65265;53.200;6.080;2023-07-13T09:05:00;101425.97;;;20.19;67.75
76434;BME280;65265;53.200;6.080;2023-07-13T09:10:03;101421.09;;;20.50;67.54
76434;BME280;65265;53.200;6.080;2023-07-13T09:14:57;101424.09;;;20.95;67.52
76434;BME280;65265;53.200;6.080;2023-07-13T09:19:57;101437.78;;;20.79;64.86
76434;BME280;65265;53.200;6.080;2023-07-13T09:24:55;101432.88;;;21.15;65.89
76434;BME280;65265;53.200;6.080;2023-07-13T09:29:55;101449.56;;;21.49;64.76
76434;BME280;65265;53.200;6.080;2023-07-13T09:34:51;101448.63;;;21.38;62.63
76434;BME280;65265;53.200;6.080;2023-07-13T09:39:44;101458.22;;;21.48;64.24
76434;BME280;65265;53.200;6.080;2023-07-13T09:44:38;101466.31;;;21.97;63.96
76434;BME280;65265;53.200;6.080;2023-07-13T09:49:34;101471.38;;;21.70;61.29
76434;BME280;65265;53.200;6.080;2023-07-13T09:54:26;101462.72;;;21.76;60.93
76434;BME280;65265;53.200;6.080;2023-07-13T09:59:19;101473.13;;;21.68;64.34
76434;BME280;65265;53.200;6.080;2023-07-13T10:04:12;101470.75;;;22.35;58.60
76434;BME280;65265;53.200;6.080;2023-07-13T10:09:07;101489.09;;;22.61;60.26
76434;BME280;65265;53.200;6.080;2023-07-13T10:14:00;101481.25;;;22.82;57.95
76434;BME280;65265;53.200;6.080;2023-07-13T10:18:55;101485.59;;;22.89;56.73
76434;BME280;65265;53.200;6.080;2023-07-13T10:23:51;101489.06;;;22.52;56.48
76434;BME280;65265;53.200;6.080;2023-07-13T10:28:51;101487.25;;;22.30;57.96
76434;BME280;65265;53.200;6.080;2023-07-13T10:33:45;101483.88;;;22.61;59.19
76434;BME280;65265;53.200;6.080;2023-07-13T10:38:36;101494.31;;;23.01;57.87
76434;BME280;65265;53.200;6.080;2023-07-13T10:43:33;101490.81;;;22.62;57.78
76434;BME280;65265;53.200;6.080;2023-07-13T10:48:28;101495.16;;;22.76;58.18
76434;BME280;65265;53.200;6.080;2023-07-13T10:53:29;101502.13;;;23.06;57.67
76434;BME280;65265;53.200;6.080;2023-07-13T10:58:23;101519.53;;;22.81;56.42
76434;BME280;65265;53.200;6.080;2023-07-13T11:03:17;101512.56;;;23.03;58.76
76434;BME280;65265;53.200;6.080;2023-07-13T11:08:18;101507.34;;;23.36;55.97
76434;BME280;65265;53.200;6.080;2023-07-13T11:13:38;101522.13;;;22.90;54.75
76434;BME280;65265;53.200;6.080;2023-07-13T11:18:33;101532.53;;;22.71;56.09
76434;BME280;65265;53.200;6.080;2023-07-13T11:23:30;101527.28;;;22.41;59.52
76434;BME280;65265;53.200;6.080;2023-07-13T11:28:25;101534.31;;;22.87;58.00
76434;BME280;65265;53.200;6.080;2023-07-13T11:33:20;101540.41;;;23.34;56.43
76434;BME280;65265;53.200;6.080;2023-07-13T11:38:16;101549.97;;;23.38;54.43
76434;BME280;65265;53.200;6.080;2023-07-13T11:43:12;101546.53;;;23.34;55.01
76434;BME280;65265;53.200;6.080;2023-07-13T11:48:04;101537.78;;;23.43;56.58
76434;BME280;65265;53.200;6.080;2023-07-13T11:52:58;101536.91;;;23.62;55.31
76434;BME280;65265;53.200;6.080;2023-07-13T11:57:56;101546.47;;;23.72;54.75
76434;BME280;65265;53.200;6.080;2023-07-13T12:02:53;101546.19;;;24.42;53.45
76434;BME280;65265;53.200;6.080;2023-07-13T12:07:46;101554.00;;;24.50;52.12
76434;BME280;65265;53.200;6.080;2023-07-13T12:12:40;101565.41;;;24.34;53.62
76434;BME280;65265;53.200;6.080;2023-07-13T12:17:37;101565.47;;;24.22;52.59
76434;BME280;65265;53.200;6.080;2023-07-13T12:22:30;101562.00;;;24.14;51.56
76434;BME280;65265;53.200;6.080;2023-07-13T12:27:23;101560.22;;;24.28;56.63
76434;BME280;65265;53.200;6.080;2023-07-13T12:32:17;101568.84;;;24.43;51.43
76434;BME280;65265;53.200;6.080;2023-07-13T12:37:11;101569.06;;;23.97;52.27
76434;BME280;65265;53.200;6.080;2023-07-13T12:42:17;101572.56;;;23.60;53.38
76434;BME280;65265;53.200;6.080;2023-07-13T12:47:13;101575.97;;;24.11;56.02
76434;BME280;65265;53.200;6.080;2023-07-13T12:52:13;101572.50;;;24.02;55.69
76434;BME280;65265;53.200;6.080;2023-07-13T12:57:05;101575.00;;;24.30;58.50
76434;BME280;65265;53.200;6.080;2023-07-13T13:02:00;101581.25;;;23.81;54.71
76434;BME280;65265;53.200;6.080;2023-07-13T13:07:00;101590.03;;;23.22;56.12
76434;BME280;65265;53.200;6.080;2023-07-13T13:11:52;101591.69;;;22.94;58.96
76434;BME280;65265;53.200;6.080;2023-07-13T13:16:46;101589.09;;;23.11;58.73
76434;BME280;65265;53.200;6.080;2023-07-13T13:21:43;101607.41;;;23.23;55.96
76434;BME280;65265;53.200;6.080;2023-07-13T13:26:35;101606.47;;;22.77;59.99
76434;BME280;65265;53.200;6.080;2023-07-13T13:31:26;101606.34;;;22.43;58.99
76434;BME280;65265;53.200;6.080;2023-07-13T13:36:20;101613.44;;;22.78;61.81
76434;BME280;65265;53.200;6.080;2023-07-13T13:41:15;101605.69;;;23.29;61.47
76434;BME280;65265;53.200;6.080;2023-07-13T13:46:14;101605.63;;;24.04;60.62
76434;BME280;65265;53.200;6.080;2023-07-13T13:51:14;101607.97;;;24.70;54.58
76434;BME280;65265;53.200;6.080;2023-07-13T13:56:06;101615.81;;;24.72;52.44
76434;BME280;65265;53.200;6.080;2023-07-13T14:00:58;101608.03;;;24.57;51.94
76434;BME280;65265;53.200;6.080;2023-07-13T14:05:50;101616.66;;;24.75;55.00
76434;BME280;65265;53.200;6.080;2023-07-13T14:10:42;101617.72;;;24.34;55.12
76434;BME280;65265;53.200;6.080;2023-07-13T14:15:34;101621.28;;;23.98;55.52
76434;BME280;65265;53.200;6.080;2023-07-13T14:20:26;101632.69;;;23.46;56.24
76434;BME280;65265;53.200;6.080;2023-07-13T14:25:19;101629.19;;;23.64;58.35
76434;BME280;65265;53.200;6.080;2023-07-13T14:30:15;101621.34;;;23.88;56.28
76434;BME280;65265;53.200;6.080;2023-07-13T14:35:10;101617.84;;;23.59;57.51
76434;BME280;65265;53.200;6.080;2023-07-13T14:40:11;101628.31;;;23.41;57.54
76434;BME280;65265;53.200;6.080;2023-07-13T14:45:03;101630.06;;;23.37;55.71
76434;BME280;65265;53.200;6.080;2023-07-13T14:49:55;101631.69;;;22.89;57.74
76434;BME280;65265;53.200;6.080;2023-07-13T14:54:47;101628.19;;;22.75;58.26
76434;BME280;65265;53.200;6.080;2023-07-13T14:59:41;101609.91;;;22.69;61.60
76434;BME280;65265;53.200;6.080;2023-07-13T15:04:34;101634.25;;;22.68;60.80
76434;BME280;65265;53.200;6.080;2023-07-13T15:09:26;101640.38;;;22.76;61.76
76434;BME280;65265;53.200;6.080;2023-07-13T15:14:19;101628.13;;;22.51;61.24
76434;BME280;65265;53.200;6.080;2023-07-13T15:19:12;101628.94;;;22.41;59.92
76434;BME280;65265;53.200;6.080;2023-07-13T15:24:04;101630.50;;;22.12;60.84
76434;BME280;65265;53.200;6.080;2023-07-13T15:28:58;101631.47;;;22.29;61.08
76434;BME280;65265;53.200;6.080;2023-07-13T15:33:50;101635.16;;;22.79;60.62
76434;BME280;65265;53.200;6.080;2023-07-13T15:38:44;101636.84;;;22.68;63.68
76434;BME280;65265;53.200;6.080;2023-07-13T15:43:36;101643.78;;;22.64;58.26
76434;BME280;65265;53.200;6.080;2023-07-13T15:48:28;101636.03;;;22.85;61.03
76434;BME280;65265;53.200;6.080;2023-07-13T15:53:23;101634.28;;;22.78;60.33
76434;BME280;65265;53.200;6.080;2023-07-13T15:58:18;101642.88;;;22.50;60.85
76434;BME280;65265;53.200;6.080;2023-07-13T16:03:10;101647.91;;;22.20;61.45
76434;BME280;65265;53.200;6.080;2023-07-13T16:08:03;101645.47;;;22.46;62.08
76434;BME280;65265;53.200;6.080;2023-07-13T16:12:57;101641.09;;;22.43;66.69
76434;BME280;65265;53.200;6.080;2023-07-13T16:17:50;101639.53;;;22.83;60.04
76434;BME280;65265;53.200;6.080;2023-07-13T16:22:45;101651.69;;;22.84;60.73
76434;BME280;65265;53.200;6.080;2023-07-13T16:27:37;101649.72;;;22.38;60.23
76434;BME280;65265;53.200;6.080;2023-07-13T16:32:28;101643.75;;;22.54;61.89
76434;BME280;65265;53.200;6.080;2023-07-13T16:37:26;101644.75;;;22.93;62.70
76434;BME280;65265;53.200;6.080;2023-07-13T16:42:19;101642.13;;;22.86;60.05
76434;BME280;65265;53.200;6.080;2023-07-13T16:47:13;101648.78;;;22.21;61.74
76434;BME280;65265;53.200;6.080;2023-07-13T16:52:05;101650.38;;;21.98;62.21
76434;BME280;65265;53.200;6.080;2023-07-13T16:57:01;101654.66;;;21.84;63.75
76434;BME280;65265;53.200;6.080;2023-07-13T17:01:53;101658.13;;;21.88;64.18
76434;BME280;65265;53.200;6.080;2023-07-13T17:06:44;101646.69;;;21.69;64.53
76434;BME280;65265;53.200;6.080;2023-07-13T17:11:37;101659.53;;;21.50;65.81
76434;BME280;65265;53.200;6.080;2023-07-13T17:16:31;101656.91;;;21.48;65.68
76434;BME280;65265;53.200;6.080;2023-07-13T17:21:23;101669.13;;;21.52;64.68
76434;BME280;65265;53.200;6.080;2023-07-13T17:26:14;101660.94;;;21.13;66.32
76434;BME280;65265;53.200;6.080;2023-07-13T17:31:06;101682.31;;;20.85;65.51
76434;BME280;65265;53.200;6.080;2023-07-13T17:36:00;101682.84;;;20.62;66.51
76434;BME280;65265;53.200;6.080;2023-07-13T17:40:53;101680.91;;;20.47;70.36
76434;BME280;65265;53.200;6.080;2023-07-13T17:45:44;101685.03;;;20.30;68.11
76434;BME280;65265;53.200;6.080;2023-07-13T17:50:36;101685.59;;;20.08;72.22
76434;BME280;65265;53.200;6.080;2023-07-13T17:55:29;101684.63;;;20.03;72.77
76434;BME280;65265;53.200;6.080;2023-07-13T18:00:21;101692.72;;;20.23;71.36
76434;BME280;65265;53.200;6.080;2023-07-13T18:05:22;101686.44;;;20.07;71.30
76434;BME280;65265;53.200;6.080;2023-07-13T18:10:15;101686.31;;;20.01;70.91
76434;BME280;65265;53.200;6.080;2023-07-13T18:15:10;101682.97;;;20.07;72.39
76434;BME280;65265;53.200;6.080;2023-07-13T18:20:01;101686.91;;;19.84;72.74
76434;BME280;65265;53.200;6.080;2023-07-13T18:24:58;101691.22;;;19.83;74.10
76434;BME280;65265;53.200;6.080;2023-07-13T18:29:51;101694.38;;;19.66;74.73
76434;BME280;65265;53.200;6.080;2023-07-13T18:34:46;101695.16;;;19.59;75.46
76434;BME280;65265;53.200;6.080;2023-07-13T18:39:37;101694.91;;;19.44;74.68
76434;BME280;65265;53.200;6.080;2023-07-13T18:44:29;101691.19;;;19.32;76.56
76434;BME280;65265;53.200;6.080;2023-07-13T18:49:21;101693.50;;;19.17;76.94
76434;BME280;65265;53.200;6.080;2023-07-13T18:54:14;101695.81;;;19.03;77.47
76434;BME280;65265;53.200;6.080;2023-07-13T18:59:05;101694.84;;;18.97;77.68
76434;BME280;65265;53.200;6.080;2023-07-13T19:03:57;101696.34;;;18.87;77.29
76434;BME280;65265;53.200;6.080;2023-07-13T19:08:48;101691.78;;;18.74;79.71
76434;BME280;65265;53.200;6.080;2023-07-13T19:13:43;101694.09;;;18.61;79.78
76434;BME280;65265;53.200;6.080;2023-07-13T19:18:35;101695.97;;;18.68;79.59
76434;BME280;65265;53.200;6.080;2023-07-13T19:23:30;101716.59;;;18.63;80.30
76434;BME280;65265;53.200;6.080;2023-07-13T19:28:32;101712.25;;;18.61;79.74
76434;BME280;65265;53.200;6.080;2023-07-13T19:33:28;101718.97;;;18.54;80.58
76434;BME280;65265;53.200;6.080;2023-07-13T19:38:22;101720.47;;;18.43;80.50
76434;BME280;65265;53.200;6.080;2023-07-13T19:43:14;101719.56;;;18.40;80.79
76434;BME280;65265;53.200;6.080;2023-07-13T19:48:06;101722.88;;;18.36;81.03
76434;BME280;65265;53.200;6.080;2023-07-13T19:53:02;101730.59;;;18.33;80.92
76434;BME280;65265;53.200;6.080;2023-07-13T19:57:53;101739.88;;;18.25;81.44
76434;BME280;65265;53.200;6.080;2023-07-13T20:02:45;101742.34;;;18.19;81.94
76434;BME280;65265;53.200;6.080;2023-07-13T20:07:37;101750.84;;;18.13;82.19
76434;BME280;65265;53.200;6.080;2023-07-13T20:12:30;101737.78;;;18.10;83.22
76434;BME280;65265;53.200;6.080;2023-07-13T20:17:28;101749.81;;;18.07;84.43
76434;BME280;65265;53.200;6.080;2023-07-13T20:22:21;101741.97;;;18.04;85.12
76434;BME280;65265;53.200;6.080;2023-07-13T20:27:12;101738.53;;;18.05;85.00
76434;BME280;65265;53.200;6.080;2023-07-13T20:32:08;101742.69;;;17.98;86.45
76434;BME280;65265;53.200;6.080;2023-07-13T20:37:00;101744.34;;;17.95;86.62
76434;BME280;65265;53.200;6.080;2023-07-13T20:41:52;101747.78;;;17.95;87.07
76434;BME280;65265;53.200;6.080;2023-07-13T20:46:43;101749.47;;;17.93;87.40
76434;BME280;65265;53.200;6.080;2023-07-13T20:51:37;101756.22;;;17.87;88.50
76434;BME280;65265;53.200;6.080;2023-07-13T20:56:28;101747.56;;;17.85;88.54
76434;BME280;65265;53.200;6.080;2023-07-13T21:01:29;101751.84;;;17.84;89.43
76434;BME280;65265;53.200;6.080;2023-07-13T21:06:21;101745.69;;;17.81;88.75
76434;BME280;65265;53.200;6.080;2023-07-13T21:11:14;101748.16;;;17.75;88.18
76434;BME280;65265;53.200;6.080;2023-07-13T21:16:16;101743.66;;;17.68;88.43
76434;BME280;65265;53.200;6.080;2023-07-13T21:21:11;101739.06;;;17.58;89.25
76434;BME280;65265;53.200;6.080;2023-07-13T21:26:04;101738.84;;;17.49;89.66
76434;BME280;65265;53.200;6.080;2023-07-13T21:31:04;101742.91;;;17.39;89.42
76434;BME280;65265;53.200;6.080;2023-07-13T21:35:57;101741.75;;;17.30;90.59
76434;BME280;65265;53.200;6.080;2023-07-13T21:40:51;101740.59;;;17.19;91.78
76434;BME280;65265;53.200;6.080;2023-07-13T21:45:44;101752.50;;;17.14;91.51
76434;BME280;65265;53.200;6.080;2023-07-13T21:50:39;101746.13;;;17.01;92.26
76434;BME280;65265;53.200;6.080;2023-07-13T21:55:30;101751.91;;;16.93;94.14
76434;BME280;65265;53.200;6.080;2023-07-13T22:00:24;101756.06;;;16.88;94.20
76434;BME280;65265;53.200;6.080;2023-07-13T22:05:17;101755.09;;;16.83;94.60
76434;BME280;65265;53.200;6.080;2023-07-13T22:10:19;101753.22;;;16.79;95.39
76434;BME280;65265;53.200;6.080;2023-07-13T22:15:11;101759.28;;;16.80;95.22
76434;BME280;65265;53.200;6.080;2023-07-13T22:20:04;101751.19;;;16.69;95.74
76434;BME280;65265;53.200;6.080;2023-07-13T22:24:58;101757.06;;;16.64;96.21
76434;BME280;65265;53.200;6.080;2023-07-13T22:29:51;101754.31;;;16.58;96.42
76434;BME280;65265;53.200;6.080;2023-07-13T22:34:42;101754.16;;;16.53;96.62
76434;BME280;65265;53.200;6.080;2023-07-13T22:39:34;101747.06;;;16.46;96.44
76434;BME280;65265;53.200;6.080;2023-07-13T22:44:26;101738.31;;;16.41;97.38
76434;BME280;65265;53.200;6.080;2023-07-13T22:49:21;101743.56;;;16.44;96.78
76434;BME280;65265;53.200;6.080;2023-07-13T22:54:14;101735.66;;;16.40;97.24
76434;BME280;65265;53.200;6.080;2023-07-13T22:59:06;101724.03;;;16.26;98.13
76434;BME280;65265;53.200;6.080;2023-07-13T23:03:59;101723.78;;;16.18;98.23
76434;BME280;65265;53.200;6.080;2023-07-13T23:08:53;101726.13;;;16.11;99.34
76434;BME280;65265;53.200;6.080;2023-07-13T23:13:44;101728.59;;;16.08;99.19
76434;BME280;65265;53.200;6.080;2023-07-13T23:18:36;101727.63;;;16.04;99.51
76434;BME280;65265;53.200;6.080;2023-07-13T23:23:28;101720.69;;;16.02;98.93
76434;BME280;65265;53.200;6.080;2023-07-13T23:28:21;101721.50;;;16.01;98.76
76434;BME280;65265;53.200;6.080;2023-07-13T23:33:18;101717.97;;;15.97;98.91
76434;BME280;65265;53.200;6.080;2023-07-13T23:38:10;101719.63;;;15.95;98.78
76434;BME280;65265;53.200;6.080;2023-07-13T23:43:03;101712.50;;;15.88;100.00
76434;BME280;65265;53.200;6.080;2023-07-13T23:47:57;101704.66;;;15.85;98.82
76434;BME280;65265;53.200;6.080;2023-07-13T23:52:50;101688.94;;;15.78;99.84
76434;BME280;65265;53.200;6.080;2023-07-13T23:57:44;101698.16;;;15.71;99.95
